Ankara, Turkey

Saat: 05:02 PM +03 Tarih: 25 Şubat 2017 (GMT +0300)
Esenboga | | Change Station

Elev 3114 ft 40.12 °N, 33.00 °E | Updated 12 minutes ago

Scattered Clouds
Az Bulutlu
57
Feels Like 57
N
13
Rüzgar Değişken Rüzgar from BGB

Bugün
High -- | Low -- F°
--% Chance of Precip.
Dün
High -- | Low -- F°
Precip. -- inç
Basınç 30.09 inç
Görüş Uzaklığı 6.2 mil
Bulutlar Few 4000 ft
Az Bulutlu 20000 ft
Çiğ noktası 30
Nem oranı 36%
Yağış 0.00 inç
Kar Kalınlığı Not available.
7:27 AM 6:35 PM
Hilal, 1% visible
METAR LTAC 251350Z 24011KT 9999 FEW040 SCT200 14/M01 Q1019 NOSIG RMK RWY21L 22011KT RWY03L 22010KT RWY21R 22010KT
Basınç 30.09 inç
Görüş Uzaklığı 6.2 mil
Bulutlar Few 4000 ft
Az Bulutlu 20000 ft
Çiğ noktası 30
Nem oranı 36%
Yağış 0.00 inç
Kar Kalınlığı Not available.
7:27 AM 6:35 PM
Hilal, 1% visible
METAR LTAC 251350Z 24011KT 9999 FEW040 SCT200 14/M01 Q1019 NOSIG RMK RWY21L 22011KT RWY03L 22010KT RWY21R 22010KT

Get Your Daily Forecast Email!

Thanks for signing up!

Be on the lookout for a verification email in your inbox.

You'll start receiving the daily forecast at 8 AM.

×

10-Day Weather Forecast

×

Almanac

Gökbilim

Feb. 25, 2017 Rise Set
Gerçek Zaman
Günlük Tan
Deniz Tanı
Geceyarısı Yıldız Zamanı
Ay
Görünür Işığın Uzunluğu
Günün Uzunluğu
Tomorrow will be .
, % of the Moon is Illuminated

Günün En Yüksekleri

Country Highs Country Lows

Community

WunderPhotos

Upload Photos

1,962,540 photos uploaded!

WunderBlog® & News

Nearby

Hava Kalitesi

  Hava Kalitesi Hava Kalitesi Endeksi Kirletici
Not available.

Kar Kalınlığı

Station Depth Yükseklik

Earthquake Activity

Şehir Distance Mag. Time & Date
Minimum magnitude displayed is 2.5.

Coastal Water Temperatures

Yer Sıcaklık

Stations

Nearby Weather Stations

Station Location Sıcaklık Rüzgar Etkisi Çiğ noktası Nem oranı Rüzgar Precip. Elev Güncellenme Zamanı Biçim